KLYO/LYO METAR and TAF weather

Enter ICAO airport designator
Station Type Date Time Source
KLYO METAR 2020/08/15 10:15 UTC NOAA

KLYO 151015Z AUTO 03009KT 10SM CLR 21/17 A3003 RMK AO2 T02090174


Station Type Date Time Source
KLYO Decoded METAR 2020/08/15 10:15 UTC NOAA

Station name not available
Aug 15, 2020 - 06:15 AM EDT / 2020.08.15 1015 UTC
Wind: from the NNE (030 degrees) at 10 MPH (9 KT):0
Visibility: 10 mile(s):0
Sky conditions: clear
Temperature: 69.6 F (20.9 C)
Dew Point: 63.3 F (17.4 C)
Relative Humidity: 80%
Pressure (altimeter): 30.03 in. Hg (1016 hPa)
ob: KLYO 151015Z AUTO 03009KT 10SM CLR 21/17 A3003 RMK AO2 T02090174
cycle: 10

Station Type Date Time Source
KLYO TAF UTC NOAA

Error!

Example: see airport list